SBDN/PPB METAR and TAF weather

Enter ICAO airport designator
Station Type Date Time Source
SBDN METAR 2021/07/27 22:00 UTC NOAA

SBDN 272200Z 24014KT 9999 BKN030 FEW060TCU BKN100 18/14 Q1016


Station Type Date Time Source
SBDN Decoded METAR 2021/07/27 22:00 UTC NOAA

Presidente Prudente, Brazil (SBDN) 22-07S 051-23W
Jul 27, 2021 - 06:00 PM EDT / 2021.07.27 2200 UTC
Wind: from the WSW (240 degrees) at 16 MPH (14 KT):0
Visibility: greater than 7 mile(s):0
Sky conditions: mostly cloudy
Weather: Towering cumulus clouds observed
Temperature: 64 F (18 C)
Dew Point: 57 F (14 C)
Relative Humidity: 77%
Pressure (altimeter): 30.00 in. Hg (1016 hPa)
ob: SBDN 272200Z 24014KT 9999 BKN030 FEW060TCU BKN100 18/14 Q1016
cycle: 22

Station Type Date Time Source
SBDN TAF 2021/07/27 18:27 UTC NOAA

TAF SBDN 271600Z 2718/2806 32015KT CAVOK TX32/2718Z TN13/2805Z
TEMPO 2718/2722 24012G25KT SCT020 PROB30 2800/2806 24015KT 6000 TSRA BKN015 FEW030CB
RMK PGD

Example: see airport list